KFXE/FXE METAR and TAF weather

Enter ICAO airport designator
Station Type Date Time Source
KFXE METAR 2022/06/29 23:53 UTC NOAA

KFXE 292353Z AUTO 13007KT 10SM CLR 29/26 A3010 RMK AO2 RAB18E33 SLP195 P0000 60000 T02890256 10322 20289 58003 TSNO


Station Type Date Time Source
KFXE Decoded METAR 2022/06/29 23:53 UTC NOAA

FORT LAUDERDALE EXECUTIVE, FL, United States (KFXE) 26-12N 080-11W 6M
Jun 29, 2022 - 07:53 PM EDT / 2022.06.29 2353 UTC
Wind: from the SE (130 degrees) at 8 MPH (7 KT):0
Visibility: 10 mile(s):0
Sky conditions: clear
Precipitation last hour: A trace
Temperature: 84.0 F (28.9 C)
Dew Point: 78.1 F (25.6 C)
Relative Humidity: 82%
Pressure (altimeter): 30.1 in. Hg (1019 hPa)
Pressure tendency: 0.01 inches (0.3 hPa) lower than three hours ago
ob: KFXE 292353Z AUTO 13007KT 10SM CLR 29/26 A3010 RMK AO2 RAB18E33 SLP195 P0000 60000 T02890256 10322 20289 58003 TSNO
cycle: 0

Station Type Date Time Source
KFXE TAF 2022/06/29 22:58 UTC NOAA

TAF
AMD KFXE 292156Z 2922/3018 12010KT P6SM VCTS SCT030CB SCT060 SCT150
FM300100 VRB04KT P6SM FEW025 SCT250
FM301400 11010KT P6SM VCSH SCT035 SCT060
FM301700 11012KT P6SM VCTS SCT030CB SCT060

Example: see airport list